sensor_id;sensor_type;location;lat;lon;timestamp;temperature;humidity
27200;DHT22;14714;48.106;11.546;2022-10-16T00:01:20;11.30;99.90
27200;DHT22;14714;48.106;11.546;2022-10-16T00:03:47;11.30;99.90
27200;DHT22;14714;48.106;11.546;2022-10-16T00:06:15;11.30;99.90
27200;DHT22;14714;48.106;11.546;2022-10-16T00:08:42;11.30;99.90
27200;DHT22;14714;48.106;11.546;2022-10-16T00:11:10;11.20;99.90
27200;DHT22;14714;48.106;11.546;2022-10-16T00:13:38;11.20;99.90
27200;DHT22;14714;48.106;11.546;2022-10-16T00:16:05;11.20;99.90
27200;DHT22;14714;48.106;11.546;2022-10-16T00:18:32;11.20;99.90
27200;DHT22;14714;48.106;11.546;2022-10-16T00:21:07;11.10;99.90
27200;DHT22;14714;48.106;11.546;2022-10-16T00:23:34;11.10;99.90
27200;DHT22;14714;48.106;11.546;2022-10-16T00:26:02;11.10;99.90
27200;DHT22;14714;48.106;11.546;2022-10-16T00:28:29;11.10;99.90
27200;DHT22;14714;48.106;11.546;2022-10-16T00:30:56;11.10;99.90
27200;DHT22;14714;48.106;11.546;2022-10-16T00:33:23;11.00;99.90
27200;DHT22;14714;48.106;11.546;2022-10-16T00:35:49;11.00;99.90
27200;DHT22;14714;48.106;11.546;2022-10-16T00:38:16;11.00;99.90
27200;DHT22;14714;48.106;11.546;2022-10-16T00:40:43;11.00;99.90
27200;DHT22;14714;48.106;11.546;2022-10-16T00:43:14;10.90;99.90
27200;DHT22;14714;48.106;11.546;2022-10-16T00:45:41;10.90;99.90
27200;DHT22;14714;48.106;11.546;2022-10-16T00:48:10;10.90;99.90
27200;DHT22;14714;48.106;11.546;2022-10-16T00:50:38;10.80;99.90
27200;DHT22;14714;48.106;11.546;2022-10-16T00:53:06;10.80;99.90
27200;DHT22;14714;48.106;11.546;2022-10-16T00:55:32;10.80;99.90
27200;DHT22;14714;48.106;11.546;2022-10-16T00:58:04;10.80;99.90
27200;DHT22;14714;48.106;11.546;2022-10-16T01:00:30;10.80;99.90
27200;DHT22;14714;48.106;11.546;2022-10-16T01:02:58;10.80;99.90
27200;DHT22;14714;48.106;11.546;2022-10-16T01:05:27;10.80;99.90
27200;DHT22;14714;48.106;11.546;2022-10-16T01:08:01;10.80;99.90
27200;DHT22;14714;48.106;11.546;2022-10-16T01:13:54;10.80;99.90
27200;DHT22;14714;48.106;11.546;2022-10-16T01:16:13;10.80;99.90
27200;DHT22;14714;48.106;11.546;2022-10-16T01:19:26;10.80;99.90
27200;DHT22;14714;48.106;11.546;2022-10-16T01:21:33;10.80;99.90
27200;DHT22;14714;48.106;11.546;2022-10-16T01:29:52;10.80;99.90
27200;DHT22;14714;48.106;11.546;2022-10-16T01:34:50;10.80;99.90
27200;DHT22;14714;48.106;11.546;2022-10-16T01:37:22;10.80;99.90
27200;DHT22;14714;48.106;11.546;2022-10-16T01:39:49;10.80;99.90
27200;DHT22;14714;48.106;11.546;2022-10-16T01:42:21;10.80;99.90
27200;DHT22;14714;48.106;11.546;2022-10-16T01:44:48;10.70;99.90
27200;DHT22;14714;48.106;11.546;2022-10-16T01:47:15;10.70;99.90
27200;DHT22;14714;48.106;11.546;2022-10-16T01:49:43;10.70;99.90
27200;DHT22;14714;48.106;11.546;2022-10-16T01:52:13;10.70;99.90
27200;DHT22;14714;48.106;11.546;2022-10-16T01:54:41;10.70;99.90
27200;DHT22;14714;48.106;11.546;2022-10-16T01:57:08;10.70;99.90
27200;DHT22;14714;48.106;11.546;2022-10-16T01:59:37;10.70;99.90
27200;DHT22;14714;48.106;11.546;2022-10-16T02:02:06;10.70;99.90
27200;DHT22;14714;48.106;11.546;2022-10-16T02:04:36;10.70;99.90
27200;DHT22;14714;48.106;11.546;2022-10-16T02:07:03;10.70;99.90
27200;DHT22;14714;48.106;11.546;2022-10-16T02:09:30;10.70;99.90
27200;DHT22;14714;48.106;11.546;2022-10-16T02:11:59;10.70;99.90
27200;DHT22;14714;48.106;11.546;2022-10-16T02:14:28;10.70;99.90
27200;DHT22;14714;48.106;11.546;2022-10-16T02:16:55;10.70;99.90
27200;DHT22;14714;48.106;11.546;2022-10-16T02:19:22;10.70;99.90
27200;DHT22;14714;48.106;11.546;2022-10-16T02:21:58;10.70;99.90
27200;DHT22;14714;48.106;11.546;2022-10-16T02:26:57;10.70;99.90
27200;DHT22;14714;48.106;11.546;2022-10-16T02:29:27;10.70;99.90
27200;DHT22;14714;48.106;11.546;2022-10-16T02:31:55;10.80;99.90
27200;DHT22;14714;48.106;11.546;2022-10-16T02:34:23;10.80;99.90
27200;DHT22;14714;48.106;11.546;2022-10-16T02:36:51;10.80;99.90
27200;DHT22;14714;48.106;11.546;2022-10-16T02:39:18;10.80;99.90
27200;DHT22;14714;48.106;11.546;2022-10-16T02:41:46;10.80;99.90
27200;DHT22;14714;48.106;11.546;2022-10-16T02:44:13;10.80;99.90
27200;DHT22;14714;48.106;11.546;2022-10-16T02:46:40;10.80;99.90
27200;DHT22;14714;48.106;11.546;2022-10-16T02:49:06;10.90;99.90
27200;DHT22;14714;48.106;11.546;2022-10-16T02:51:33;10.90;99.90
27200;DHT22;14714;48.106;11.546;2022-10-16T02:54:00;10.90;99.90
27200;DHT22;14714;48.106;11.546;2022-10-16T02:56:26;10.90;99.90
27200;DHT22;14714;48.106;11.546;2022-10-16T02:58:53;10.90;99.90
27200;DHT22;14714;48.106;11.546;2022-10-16T03:01:20;10.90;99.90
27200;DHT22;14714;48.106;11.546;2022-10-16T03:03:47;11.00;99.90
27200;DHT22;14714;48.106;11.546;2022-10-16T03:06:13;11.00;99.90
27200;DHT22;14714;48.106;11.546;2022-10-16T03:08:40;11.00;99.90
27200;DHT22;14714;48.106;11.546;2022-10-16T03:11:07;11.00;99.90
27200;DHT22;14714;48.106;11.546;2022-10-16T03:13:33;10.90;99.90
27200;DHT22;14714;48.106;11.546;2022-10-16T03:16:00;10.90;99.90
27200;DHT22;14714;48.106;11.546;2022-10-16T03:18:27;10.90;99.90
27200;DHT22;14714;48.106;11.546;2022-10-16T03:20:53;10.90;99.90
27200;DHT22;14714;48.106;11.546;2022-10-16T03:23:20;10.90;99.90
27200;DHT22;14714;48.106;11.546;2022-10-16T03:25:47;10.90;99.90
27200;DHT22;14714;48.106;11.546;2022-10-16T03:28:13;10.90;99.90
27200;DHT22;14714;48.106;11.546;2022-10-16T03:30:40;10.90;99.90
27200;DHT22;14714;48.106;11.546;2022-10-16T03:33:07;10.90;99.90
27200;DHT22;14714;48.106;11.546;2022-10-16T03:35:33;10.90;99.90
27200;DHT22;14714;48.106;11.546;2022-10-16T03:38:00;10.90;99.90
27200;DHT22;14714;48.106;11.546;2022-10-16T03:40:27;10.90;99.90
27200;DHT22;14714;48.106;11.546;2022-10-16T03:42:54;10.90;99.90
27200;DHT22;14714;48.106;11.546;2022-10-16T03:45:24;10.90;99.90
27200;DHT22;14714;48.106;11.546;2022-10-16T03:47:50;10.90;99.90
27200;DHT22;14714;48.106;11.546;2022-10-16T03:50:17;10.90;99.90
27200;DHT22;14714;48.106;11.546;2022-10-16T03:52:44;11.00;99.90
27200;DHT22;14714;48.106;11.546;2022-10-16T03:55:10;11.00;99.90
27200;DHT22;14714;48.106;11.546;2022-10-16T03:57:37;11.10;99.90
27200;DHT22;14714;48.106;11.546;2022-10-16T04:00:04;11.10;99.90
27200;DHT22;14714;48.106;11.546;2022-10-16T04:02:30;11.10;99.90
27200;DHT22;14714;48.106;11.546;2022-10-16T04:04:57;11.20;99.90
27200;DHT22;14714;48.106;11.546;2022-10-16T04:07:24;11.30;99.90
27200;DHT22;14714;48.106;11.546;2022-10-16T04:09:51;11.30;99.90
27200;DHT22;14714;48.106;11.546;2022-10-16T04:12:18;11.30;99.90
27200;DHT22;14714;48.106;11.546;2022-10-16T04:14:45;11.40;99.90
27200;DHT22;14714;48.106;11.546;2022-10-16T04:17:11;11.40;99.90
27200;DHT22;14714;48.106;11.546;2022-10-16T04:19:38;11.50;99.90
27200;DHT22;14714;48.106;11.546;2022-10-16T04:22:04;11.60;99.90
27200;DHT22;14714;48.106;11.546;2022-10-16T04:24:31;11.60;99.90
27200;DHT22;14714;48.106;11.546;2022-10-16T04:26:58;11.60;99.90
27200;DHT22;14714;48.106;11.546;2022-10-16T04:29:24;11.70;99.90
27200;DHT22;14714;48.106;11.546;2022-10-16T04:31:51;11.70;99.90
27200;DHT22;14714;48.106;11.546;2022-10-16T04:34:18;11.80;99.90
27200;DHT22;14714;48.106;11.546;2022-10-16T04:36:46;11.80;99.90
27200;DHT22;14714;48.106;11.546;2022-10-16T04:39:13;11.90;99.90
27200;DHT22;14714;48.106;11.546;2022-10-16T04:41:40;11.90;99.90
27200;DHT22;14714;48.106;11.546;2022-10-16T04:44:06;11.90;99.90
27200;DHT22;14714;48.106;11.546;2022-10-16T04:46:33;11.90;99.90
27200;DHT22;14714;48.106;11.546;2022-10-16T04:49:00;11.90;99.90
27200;DHT22;14714;48.106;11.546;2022-10-16T04:51:27;11.90;99.90
27200;DHT22;14714;48.106;11.546;2022-10-16T04:53:54;12.00;99.90
27200;DHT22;14714;48.106;11.546;2022-10-16T04:56:21;12.00;99.90
27200;DHT22;14714;48.106;11.546;2022-10-16T04:58:48;12.00;99.90
27200;DHT22;14714;48.106;11.546;2022-10-16T05:01:15;12.00;99.90
27200;DHT22;14714;48.106;11.546;2022-10-16T05:03:41;12.00;99.90
27200;DHT22;14714;48.106;11.546;2022-10-16T05:06:08;12.00;99.90
27200;DHT22;14714;48.106;11.546;2022-10-16T05:08:34;12.00;99.90
27200;DHT22;14714;48.106;11.546;2022-10-16T05:11:01;12.00;99.90
27200;DHT22;14714;48.106;11.546;2022-10-16T05:13:28;12.10;99.90
27200;DHT22;14714;48.106;11.546;2022-10-16T05:15:54;12.10;99.90
27200;DHT22;14714;48.106;11.546;2022-10-16T05:18:21;12.00;99.90
27200;DHT22;14714;48.106;11.546;2022-10-16T05:20:48;12.10;99.90
27200;DHT22;14714;48.106;11.546;2022-10-16T05:23:14;12.10;99.90
27200;DHT22;14714;48.106;11.546;2022-10-16T05:25:41;12.10;99.90
27200;DHT22;14714;48.106;11.546;2022-10-16T05:28:07;12.10;99.90
27200;DHT22;14714;48.106;11.546;2022-10-16T05:30:34;12.10;99.90
27200;DHT22;14714;48.106;11.546;2022-10-16T05:33:03;12.10;99.90
27200;DHT22;14714;48.106;11.546;2022-10-16T05:35:29;12.10;99.90
27200;DHT22;14714;48.106;11.546;2022-10-16T05:37:56;12.10;99.90
27200;DHT22;14714;48.106;11.546;2022-10-16T05:40:23;12.10;99.90
27200;DHT22;14714;48.106;11.546;2022-10-16T05:42:50;12.20;99.90
27200;DHT22;14714;48.106;11.546;2022-10-16T05:45:20;12.10;99.90
27200;DHT22;14714;48.106;11.546;2022-10-16T05:47:47;12.20;99.90
27200;DHT22;14714;48.106;11.546;2022-10-16T05:50:13;12.20;99.90
27200;DHT22;14714;48.106;11.546;2022-10-16T05:52:40;12.20;99.90
27200;DHT22;14714;48.106;11.546;2022-10-16T05:55:07;12.20;99.90
27200;DHT22;14714;48.106;11.546;2022-10-16T05:57:33;12.20;99.90
27200;DHT22;14714;48.106;11.546;2022-10-16T06:00:00;12.20;99.90
27200;DHT22;14714;48.106;11.546;2022-10-16T06:02:27;12.20;99.90
27200;DHT22;14714;48.106;11.546;2022-10-16T06:04:53;12.20;99.90
27200;DHT22;14714;48.106;11.546;2022-10-16T06:07:20;12.20;99.90
27200;DHT22;14714;48.106;11.546;2022-10-16T06:09:48;12.20;99.90
27200;DHT22;14714;48.106;11.546;2022-10-16T06:12:15;12.20;99.90
27200;DHT22;14714;48.106;11.546;2022-10-16T06:14:41;12.30;99.90
27200;DHT22;14714;48.106;11.546;2022-10-16T06:17:08;12.40;99.90
27200;DHT22;14714;48.106;11.546;2022-10-16T06:19:35;12.40;99.90
27200;DHT22;14714;48.106;11.546;2022-10-16T06:22:01;12.40;99.90
27200;DHT22;14714;48.106;11.546;2022-10-16T06:24:29;12.50;99.90
27200;DHT22;14714;48.106;11.546;2022-10-16T06:26:55;12.50;99.90
27200;DHT22;14714;48.106;11.546;2022-10-16T06:29:22;12.50;99.90
27200;DHT22;14714;48.106;11.546;2022-10-16T06:31:48;12.60;99.90
27200;DHT22;14714;48.106;11.546;2022-10-16T06:34:15;12.60;99.90
27200;DHT22;14714;48.106;11.546;2022-10-16T06:36:42;12.70;99.90
27200;DHT22;14714;48.106;11.546;2022-10-16T06:39:09;12.80;99.90
27200;DHT22;14714;48.106;11.546;2022-10-16T06:41:36;12.80;99.90
27200;DHT22;14714;48.106;11.546;2022-10-16T06:44:05;12.90;99.90
27200;DHT22;14714;48.106;11.546;2022-10-16T06:46:31;12.90;99.90
27200;DHT22;14714;48.106;11.546;2022-10-16T06:48:58;13.00;99.90
27200;DHT22;14714;48.106;11.546;2022-10-16T06:51:25;13.10;99.90
27200;DHT22;14714;48.106;11.546;2022-10-16T06:53:52;13.20;99.90
27200;DHT22;14714;48.106;11.546;2022-10-16T06:56:30;13.20;99.90
27200;DHT22;14714;48.106;11.546;2022-10-16T06:58:58;13.20;99.90
27200;DHT22;14714;48.106;11.546;2022-10-16T07:01:25;13.30;99.90
27200;DHT22;14714;48.106;11.546;2022-10-16T07:03:52;13.30;99.90
27200;DHT22;14714;48.106;11.546;2022-10-16T07:06:20;13.40;99.90
27200;DHT22;14714;48.106;11.546;2022-10-16T07:08:47;13.50;99.90
27200;DHT22;14714;48.106;11.546;2022-10-16T07:11:14;13.60;99.90
27200;DHT22;14714;48.106;11.546;2022-10-16T07:13:42;13.70;99.90
27200;DHT22;14714;48.106;11.546;2022-10-16T07:18:36;13.90;99.90
27200;DHT22;14714;48.106;11.546;2022-10-16T07:21:13;14.00;99.90
27200;DHT22;14714;48.106;11.546;2022-10-16T07:23:40;14.00;99.90
27200;DHT22;14714;48.106;11.546;2022-10-16T07:26:08;14.10;99.90
27200;DHT22;14714;48.106;11.546;2022-10-16T07:28:36;14.10;99.90
27200;DHT22;14714;48.106;11.546;2022-10-16T07:31:03;14.30;99.90
27200;DHT22;14714;48.106;11.546;2022-10-16T07:33:31;14.40;99.90
27200;DHT22;14714;48.106;11.546;2022-10-16T07:35:57;14.60;99.90
27200;DHT22;14714;48.106;11.546;2022-10-16T07:38:24;14.80;99.90
27200;DHT22;14714;48.106;11.546;2022-10-16T07:41:01;14.90;99.90
27200;DHT22;14714;48.106;11.546;2022-10-16T07:43:28;15.10;99.90
27200;DHT22;14714;48.106;11.546;2022-10-16T07:45:55;15.30;99.90
27200;DHT22;14714;48.106;11.546;2022-10-16T07:48:29;15.50;99.90
27200;DHT22;14714;48.106;11.546;2022-10-16T07:50:57;15.80;99.90
27200;DHT22;14714;48.106;11.546;2022-10-16T07:53:24;16.20;99.90
27200;DHT22;14714;48.106;11.546;2022-10-16T07:55:52;16.50;99.90
27200;DHT22;14714;48.106;11.546;2022-10-16T07:58:19;16.70;99.90
27200;DHT22;14714;48.106;11.546;2022-10-16T08:00:45;16.80;99.90
27200;DHT22;14714;48.106;11.546;2022-10-16T08:03:12;16.80;99.90
27200;DHT22;14714;48.106;11.546;2022-10-16T08:05:38;16.80;99.90
27200;DHT22;14714;48.106;11.546;2022-10-16T08:08:05;16.80;99.90
27200;DHT22;14714;48.106;11.546;2022-10-16T08:10:32;16.70;99.90
27200;DHT22;14714;48.106;11.546;2022-10-16T08:12:58;16.70;99.90
27200;DHT22;14714;48.106;11.546;2022-10-16T08:15:25;16.80;99.90
27200;DHT22;14714;48.106;11.546;2022-10-16T08:17:59;17.00;99.90
27200;DHT22;14714;48.106;11.546;2022-10-16T08:20:26;17.00;99.90
27200;DHT22;14714;48.106;11.546;2022-10-16T08:22:53;17.00;99.90
27200;DHT22;14714;48.106;11.546;2022-10-16T08:25:23;17.10;99.90
27200;DHT22;14714;48.106;11.546;2022-10-16T08:27:50;17.30;99.90
27200;DHT22;14714;48.106;11.546;2022-10-16T08:30:18;17.40;99.90
27200;DHT22;14714;48.106;11.546;2022-10-16T08:32:45;17.70;99.90
27200;DHT22;14714;48.106;11.546;2022-10-16T08:35:11;18.20;99.90
27200;DHT22;14714;48.106;11.546;2022-10-16T08:37:38;19.20;99.90
27200;DHT22;14714;48.106;11.546;2022-10-16T08:40:06;20.90;99.90
27200;DHT22;14714;48.106;11.546;2022-10-16T08:42:43;22.70;99.90
27200;DHT22;14714;48.106;11.546;2022-10-16T08:48:27;26.30;99.90
27200;DHT22;14714;48.106;11.546;2022-10-16T08:50:32;27.90;98.70
27200;DHT22;14714;48.106;11.546;2022-10-16T08:53:02;29.50;89.90
27200;DHT22;14714;48.106;11.546;2022-10-16T08:55:31;30.80;77.50
27200;DHT22;14714;48.106;11.546;2022-10-16T08:58:00;32.10;66.60
27200;DHT22;14714;48.106;11.546;2022-10-16T09:00:27;33.30;60.00
27200;DHT22;14714;48.106;11.546;2022-10-16T09:03:04;34.30;55.00
27200;DHT22;14714;48.106;11.546;2022-10-16T09:08:21;36.10;46.60
27200;DHT22;14714;48.106;11.546;2022-10-16T09:23:43;34.50;41.40
27200;DHT22;14714;48.106;11.546;2022-10-16T09:26:11;32.40;45.90
27200;DHT22;14714;48.106;11.546;2022-10-16T09:31:16;29.10;51.30
27200;DHT22;14714;48.106;11.546;2022-10-16T09:33:44;27.90;55.40
27200;DHT22;14714;48.106;11.546;2022-10-16T09:36:11;26.80;58.10
27200;DHT22;14714;48.106;11.546;2022-10-16T09:38:39;26.10;58.90
27200;DHT22;14714;48.106;11.546;2022-10-16T09:41:14;25.30;61.20
27200;DHT22;14714;48.106;11.546;2022-10-16T09:43:46;24.80;62.20
27200;DHT22;14714;48.106;11.546;2022-10-16T09:46:33;24.30;64.40
27200;DHT22;14714;48.106;11.546;2022-10-16T09:49:02;23.90;68.00
27200;DHT22;14714;48.106;11.546;2022-10-16T09:51:33;23.50;67.90
27200;DHT22;14714;48.106;11.546;2022-10-16T09:56:35;23.10;72.10
27200;DHT22;14714;48.106;11.546;2022-10-16T09:59:08;23.00;71.50
27200;DHT22;14714;48.106;11.546;2022-10-16T10:01:39;22.80;72.00
27200;DHT22;14714;48.106;11.546;2022-10-16T10:04:06;22.70;72.90
27200;DHT22;14714;48.106;11.546;2022-10-16T10:06:37;22.60;75.40
27200;DHT22;14714;48.106;11.546;2022-10-16T10:09:23;22.50;75.80
27200;DHT22;14714;48.106;11.546;2022-10-16T10:16:50;22.20;74.00
27200;DHT22;14714;48.106;11.546;2022-10-16T10:19:19;22.20;73.90
27200;DHT22;14714;48.106;11.546;2022-10-16T10:21:46;22.10;75.30
27200;DHT22;14714;48.106;11.546;2022-10-16T10:24:13;22.10;76.10
27200;DHT22;14714;48.106;11.546;2022-10-16T10:26:41;22.00;75.70
27200;DHT22;14714;48.106;11.546;2022-10-16T10:36:43;21.90;73.70
27200;DHT22;14714;48.106;11.546;2022-10-16T10:39:17;21.90;75.70
27200;DHT22;14714;48.106;11.546;2022-10-16T10:46:56;21.90;75.80
27200;DHT22;14714;48.106;11.546;2022-10-16T10:55:03;22.00;78.90
27200;DHT22;14714;48.106;11.546;2022-10-16T10:57:38;22.10;75.90
27200;DHT22;14714;48.106;11.546;2022-10-16T11:02:38;22.20;74.80
27200;DHT22;14714;48.106;11.546;2022-10-16T11:05:12;22.50;74.80
27200;DHT22;14714;48.106;11.546;2022-10-16T11:10:16;23.00;72.10
27200;DHT22;14714;48.106;11.546;2022-10-16T11:12:46;23.20;74.30
27200;DHT22;14714;48.106;11.546;2022-10-16T11:15:18;23.30;75.70
27200;DHT22;14714;48.106;11.546;2022-10-16T11:22:56;23.20;69.60
27200;DHT22;14714;48.106;11.546;2022-10-16T11:25:26;23.20;70.20
27200;DHT22;14714;48.106;11.546;2022-10-16T11:30:26;23.20;71.30
27200;DHT22;14714;48.106;11.546;2022-10-16T11:33:10;23.20;68.10
27200;DHT22;14714;48.106;11.546;2022-10-16T11:35:44;23.10;70.00
27200;DHT22;14714;48.106;11.546;2022-10-16T11:41:21;23.00;67.00
27200;DHT22;14714;48.106;11.546;2022-10-16T11:44:01;23.00;67.00
27200;DHT22;14714;48.106;11.546;2022-10-16T11:46:30;22.90;65.90
27200;DHT22;14714;48.106;11.546;2022-10-16T11:49:10;22.80;68.30
27200;DHT22;14714;48.106;11.546;2022-10-16T11:51:43;22.80;66.20
27200;DHT22;14714;48.106;11.546;2022-10-16T11:54:18;22.70;63.70
27200;DHT22;14714;48.106;11.546;2022-10-16T11:56:48;22.60;66.60
27200;DHT22;14714;48.106;11.546;2022-10-16T11:59:20;22.60;65.50
27200;DHT22;14714;48.106;11.546;2022-10-16T12:01:52;22.60;66.40
27200;DHT22;14714;48.106;11.546;2022-10-16T12:07:05;22.60;64.20
27200;DHT22;14714;48.106;11.546;2022-10-16T12:09:34;22.60;64.00
27200;DHT22;14714;48.106;11.546;2022-10-16T12:12:02;22.60;64.20
27200;DHT22;14714;48.106;11.546;2022-10-16T12:17:26;22.60;64.00
27200;DHT22;14714;48.106;11.546;2022-10-16T12:20:00;22.70;66.80
27200;DHT22;14714;48.106;11.546;2022-10-16T12:22:30;22.60;64.00
27200;DHT22;14714;48.106;11.546;2022-10-16T12:24:58;22.60;63.10
27200;DHT22;14714;48.106;11.546;2022-10-16T12:27:31;22.60;63.10
27200;DHT22;14714;48.106;11.546;2022-10-16T12:29:59;22.60;65.80
27200;DHT22;14714;48.106;11.546;2022-10-16T12:32:33;22.60;65.20
27200;DHT22;14714;48.106;11.546;2022-10-16T12:35:22;22.50;64.00
27200;DHT22;14714;48.106;11.546;2022-10-16T12:37:50;22.50;64.20
27200;DHT22;14714;48.106;11.546;2022-10-16T12:42:50;22.50;63.70
27200;DHT22;14714;48.106;11.546;2022-10-16T12:47:53;22.50;64.30
27200;DHT22;14714;48.106;11.546;2022-10-16T12:52:50;22.50;64.90
27200;DHT22;14714;48.106;11.546;2022-10-16T12:55:17;22.50;63.60
27200;DHT22;14714;48.106;11.546;2022-10-16T13:00:39;22.40;65.40
27200;DHT22;14714;48.106;11.546;2022-10-16T13:03:17;22.40;65.20
27200;DHT22;14714;48.106;11.546;2022-10-16T13:05:54;22.40;64.70
27200;DHT22;14714;48.106;11.546;2022-10-16T13:21:16;22.40;69.30
27200;DHT22;14714;48.106;11.546;2022-10-16T13:23:59;22.30;67.30
27200;DHT22;14714;48.106;11.546;2022-10-16T13:26:31;22.30;66.90
27200;DHT22;14714;48.106;11.546;2022-10-16T13:29:03;22.30;66.30
27200;DHT22;14714;48.106;11.546;2022-10-16T13:31:30;22.30;65.60
27200;DHT22;14714;48.106;11.546;2022-10-16T13:33:57;22.30;66.40
27200;DHT22;14714;48.106;11.546;2022-10-16T13:36:30;22.30;65.90
27200;DHT22;14714;48.106;11.546;2022-10-16T13:39:00;22.30;67.00
27200;DHT22;14714;48.106;11.546;2022-10-16T13:41:30;22.30;63.70
27200;DHT22;14714;48.106;11.546;2022-10-16T13:43:56;22.40;64.00
27200;DHT22;14714;48.106;11.546;2022-10-16T13:46:24;22.40;64.00
27200;DHT22;14714;48.106;11.546;2022-10-16T13:48:57;22.40;64.20
27200;DHT22;14714;48.106;11.546;2022-10-16T13:51:24;22.40;65.60
27200;DHT22;14714;48.106;11.546;2022-10-16T13:53:51;22.30;65.40
27200;DHT22;14714;48.106;11.546;2022-10-16T13:56:19;22.30;66.50
27200;DHT22;14714;48.106;11.546;2022-10-16T13:58:46;22.30;64.80
27200;DHT22;14714;48.106;11.546;2022-10-16T14:03:40;22.20;65.00
27200;DHT22;14714;48.106;11.546;2022-10-16T14:06:11;22.20;65.60
27200;DHT22;14714;48.106;11.546;2022-10-16T14:08:41;22.20;65.30
27200;DHT22;14714;48.106;11.546;2022-10-16T14:11:08;22.20;65.00
27200;DHT22;14714;48.106;11.546;2022-10-16T14:16:09;22.10;62.60
27200;DHT22;14714;48.106;11.546;2022-10-16T14:18:37;22.10;62.20
27200;DHT22;14714;48.106;11.546;2022-10-16T14:21:11;22.10;63.50
27200;DHT22;14714;48.106;11.546;2022-10-16T14:23:39;22.20;62.20
27200;DHT22;14714;48.106;11.546;2022-10-16T14:26:11;22.20;62.40
27200;DHT22;14714;48.106;11.546;2022-10-16T14:28:41;22.20;62.00
27200;DHT22;14714;48.106;11.546;2022-10-16T14:31:22;22.20;61.70
27200;DHT22;14714;48.106;11.546;2022-10-16T14:33:50;22.20;64.10
27200;DHT22;14714;48.106;11.546;2022-10-16T14:36:16;22.20;64.70
27200;DHT22;14714;48.106;11.546;2022-10-16T14:38:49;22.20;64.20
27200;DHT22;14714;48.106;11.546;2022-10-16T14:41:20;22.10;62.40
27200;DHT22;14714;48.106;11.546;2022-10-16T14:43:49;22.10;63.90
27200;DHT22;14714;48.106;11.546;2022-10-16T14:46:18;22.10;62.60
27200;DHT22;14714;48.106;11.546;2022-10-16T14:48:47;22.10;62.90
27200;DHT22;14714;48.106;11.546;2022-10-16T14:51:16;22.10;63.60
27200;DHT22;14714;48.106;11.546;2022-10-16T14:53:44;22.10;64.30
27200;DHT22;14714;48.106;11.546;2022-10-16T14:56:20;22.00;66.00
27200;DHT22;14714;48.106;11.546;2022-10-16T14:58:48;22.00;66.20
27200;DHT22;14714;48.106;11.546;2022-10-16T15:01:16;21.90;66.40
27200;DHT22;14714;48.106;11.546;2022-10-16T15:03:43;21.90;67.90
27200;DHT22;14714;48.106;11.546;2022-10-16T15:06:13;21.80;67.20
27200;DHT22;14714;48.106;11.546;2022-10-16T15:08:40;21.70;68.50
27200;DHT22;14714;48.106;11.546;2022-10-16T15:11:14;21.60;69.80
27200;DHT22;14714;48.106;11.546;2022-10-16T15:13:41;21.50;70.20
27200;DHT22;14714;48.106;11.546;2022-10-16T15:16:10;21.40;71.50
27200;DHT22;14714;48.106;11.546;2022-10-16T15:18:37;21.30;73.10
27200;DHT22;14714;48.106;11.546;2022-10-16T15:21:04;21.20;75.00
27200;DHT22;14714;48.106;11.546;2022-10-16T15:23:30;21.10;77.40
27200;DHT22;14714;48.106;11.546;2022-10-16T15:25:57;21.00;79.60
27200;DHT22;14714;48.106;11.546;2022-10-16T15:28:24;20.90;79.70
27200;DHT22;14714;48.106;11.546;2022-10-16T15:30:53;20.80;81.30
27200;DHT22;14714;48.106;11.546;2022-10-16T15:33:20;20.70;82.40
27200;DHT22;14714;48.106;11.546;2022-10-16T15:35:49;20.50;82.90
27200;DHT22;14714;48.106;11.546;2022-10-16T15:38:17;20.40;83.60
27200;DHT22;14714;48.106;11.546;2022-10-16T15:40:44;20.30;85.30
27200;DHT22;14714;48.106;11.546;2022-10-16T15:43:10;20.20;86.00
27200;DHT22;14714;48.106;11.546;2022-10-16T15:45:38;20.10;86.80
27200;DHT22;14714;48.106;11.546;2022-10-16T15:48:04;20.00;85.30
27200;DHT22;14714;48.106;11.546;2022-10-16T15:50:31;19.90;83.90
27200;DHT22;14714;48.106;11.546;2022-10-16T15:52:58;19.80;84.80
27200;DHT22;14714;48.106;11.546;2022-10-16T15:55:25;19.80;84.60
27200;DHT22;14714;48.106;11.546;2022-10-16T15:57:52;19.80;83.70
27200;DHT22;14714;48.106;11.546;2022-10-16T16:00:18;19.80;83.90
27200;DHT22;14714;48.106;11.546;2022-10-16T16:02:51;19.80;84.10
27200;DHT22;14714;48.106;11.546;2022-10-16T16:05:18;19.80;85.10
27200;DHT22;14714;48.106;11.546;2022-10-16T16:07:45;19.70;85.30
27200;DHT22;14714;48.106;11.546;2022-10-16T16:10:12;19.70;84.90
27200;DHT22;14714;48.106;11.546;2022-10-16T16:12:39;19.70;87.30
27200;DHT22;14714;48.106;11.546;2022-10-16T16:15:06;19.60;88.00
27200;DHT22;14714;48.106;11.546;2022-10-16T16:17:33;19.50;89.50
27200;DHT22;14714;48.106;11.546;2022-10-16T16:20:00;19.40;90.30
27200;DHT22;14714;48.106;11.546;2022-10-16T16:22:27;19.30;90.80
27200;DHT22;14714;48.106;11.546;2022-10-16T16:24:54;19.20;91.10
27200;DHT22;14714;48.106;11.546;2022-10-16T16:27:21;19.00;91.70
27200;DHT22;14714;48.106;11.546;2022-10-16T16:29:48;18.90;91.70
27200;DHT22;14714;48.106;11.546;2022-10-16T16:32:14;18.80;91.90
27200;DHT22;14714;48.106;11.546;2022-10-16T16:34:41;18.70;92.70
27200;DHT22;14714;48.106;11.546;2022-10-16T16:37:08;18.60;94.00
27200;DHT22;14714;48.106;11.546;2022-10-16T16:39:34;18.40;94.80
27200;DHT22;14714;48.106;11.546;2022-10-16T16:42:01;18.30;95.30
27200;DHT22;14714;48.106;11.546;2022-10-16T16:44:30;18.10;95.70
27200;DHT22;14714;48.106;11.546;2022-10-16T16:46:57;18.00;96.80
27200;DHT22;14714;48.106;11.546;2022-10-16T16:49:23;17.90;97.50
27200;DHT22;14714;48.106;11.546;2022-10-16T16:51:50;17.70;98.60
27200;DHT22;14714;48.106;11.546;2022-10-16T16:54:18;17.60;99.40
27200;DHT22;14714;48.106;11.546;2022-10-16T16:56:45;17.50;99.90
27200;DHT22;14714;48.106;11.546;2022-10-16T16:59:13;17.40;99.90
27200;DHT22;14714;48.106;11.546;2022-10-16T17:01:40;17.30;99.90
27200;DHT22;14714;48.106;11.546;2022-10-16T17:04:07;17.20;99.90
27200;DHT22;14714;48.106;11.546;2022-10-16T17:06:34;17.10;99.90
27200;DHT22;14714;48.106;11.546;2022-10-16T17:09:01;17.00;99.90
27200;DHT22;14714;48.106;11.546;2022-10-16T17:11:29;17.00;99.90
27200;DHT22;14714;48.106;11.546;2022-10-16T17:13:56;16.90;99.90
27200;DHT22;14714;48.106;11.546;2022-10-16T17:16:24;16.80;99.90